Time;durP1;ratioP1;P1;durP2;ratioP2;P2;SDS_P1;SDS_P2;PMS_P1;PMS_P2;Temp;Humidity;BMP_temperature;BMP_pressure;BME280_temperature;BME280_humidity;BME280_pressure;Samples;Min_cycle;Max_cycle;Signal;HPM_P1;HPM_P2
2022/05/25 05:23:57;;;;;;;3.45;2.28;;;22.80;99.90;;;;;;6155009;22;87459;-66
2022/05/25 05:27:00;;;;;;;3.47;2.83;;;22.80;99.90;;;;;;6161017;28;88407;-68
2022/05/25 05:30:06;;;;;;;3.05;2.65;;;22.80;99.90;;;;;;6154281;28;89149;-65
2022/05/25 05:33:08;;;;;;;4.07;2.65;;;22.80;99.80;;;;;;6150777;28;89982;-66
2022/05/25 05:36:14;;;;;;;2.63;2.42;;;22.80;99.20;;;;;;6160196;28;88123;-66
2022/05/25 05:39:19;;;;;;;3.10;2.80;;;22.80;98.60;;;;;;6160503;28;89175;-65
2022/05/25 05:42:22;;;;;;;3.67;3.00;;;22.80;98.20;;;;;;6159032;28;89167;-65
2022/05/25 05:45:28;;;;;;;3.60;3.00;;;22.80;97.70;;;;;;6145883;28;89052;-66
2022/05/25 05:48:31;;;;;;;3.90;2.92;;;22.90;97.70;;;;;;6147277;28;88377;-66
2022/05/25 05:51:33;;;;;;;3.17;2.88;;;22.80;97.20;;;;;;6155504;28;89449;-65
2022/05/25 05:54:38;;;;;;;2.80;2.60;;;22.80;97.20;;;;;;6156302;28;88380;-65
2022/05/25 05:57:40;;;;;;;2.80;2.60;;;22.90;97.30;;;;;;6152230;28;89115;-66
2022/05/25 06:00:42;;;;;;;4.18;2.53;;;22.90;97.10;;;;;;6144573;28;88035;-66
2022/05/25 06:03:44;;;;;;;2.70;2.50;;;22.80;97.10;;;;;;6149436;28;89984;-66
2022/05/25 06:06:46;;;;;;;2.85;2.60;;;22.90;96.80;;;;;;6136192;28;89383;-66
2022/05/25 06:09:50;;;;;;;3.10;2.80;;;22.90;96.80;;;;;;6159639;28;89194;-66
2022/05/25 06:12:53;;;;;;;3.55;3.25;;;22.90;96.50;;;;;;6153597;28;89043;-65
2022/05/25 06:19:27;;;;;;;16.63;10.75;;;22.90;96.50;;;;;;6133903;28;87830;-66
2022/05/25 06:22:31;;;;;;;18.85;11.40;;;22.80;96.40;;;;;;6144204;28;89070;-66
2022/05/25 06:25:34;;;;;;;16.83;10.25;;;22.80;96.20;;;;;;6150393;28;88925;-67
2022/05/25 06:28:36;;;;;;;20.25;11.63;;;22.80;96.20;;;;;;6158390;28;89015;-65
2022/05/25 06:31:38;;;;;;;18.27;11.75;;;22.80;96.00;;;;;;6157090;28;89065;-66
2022/05/25 06:34:47;;;;;;;14.48;9.07;;;22.80;95.90;;;;;;6154306;28;90208;-66
2022/05/25 06:37:49;;;;;;;15.10;9.10;;;22.80;95.70;;;;;;6145209;28;89521;-67
2022/05/25 06:40:52;;;;;;;12.93;8.43;;;22.80;95.70;;;;;;6150305;28;89009;-66
2022/05/25 06:43:54;;;;;;;12.23;7.20;;;22.80;95.50;;;;;;6157810;28;89192;-65
2022/05/25 06:46:56;;;;;;;10.35;6.80;;;22.80;95.40;;;;;;6140674;28;89046;-65
2022/05/25 06:49:58;;;;;;;7.85;6.28;;;22.80;95.50;;;;;;6146340;28;89298;-64
2022/05/25 06:53:00;;;;;;;9.10;6.10;;;22.80;95.40;;;;;;6158753;28;89219;-66
2022/05/25 06:56:04;;;;;;;7.00;5.53;;;22.80;95.40;;;;;;6159642;28;87784;-66
2022/05/25 06:59:07;;;;;;;7.15;5.60;;;22.80;95.40;;;;;;6144896;28;89144;-65
2022/05/25 07:02:09;;;;;;;8.98;6.22;;;22.80;95.40;;;;;;6143403;28;89206;-65
2022/05/25 07:05:11;;;;;;;6.43;5.70;;;22.80;95.40;;;;;;6155867;28;90033;-64
2022/05/25 07:08:14;;;;;;;6.60;5.93;;;22.80;95.30;;;;;;6159210;28;89423;-65
2022/05/25 07:11:17;;;;;;;6.63;5.63;;;22.70;95.20;;;;;;6157711;28;89059;-66
2022/05/25 07:14:19;;;;;;;7.45;6.00;;;22.80;95.10;;;;;;6147078;28;89067;-66
2022/05/25 07:17:21;;;;;;;6.28;5.68;;;22.80;95.00;;;;;;6150891;28;89137;-65
2022/05/25 07:20:23;;;;;;;5.85;5.05;;;22.80;95.00;;;;;;6154955;28;89220;-66
2022/05/25 07:23:25;;;;;;;6.82;5.07;;;22.70;95.00;;;;;;6148777;28;89289;-67
2022/05/25 07:26:32;;;;;;;6.07;5.13;;;22.80;95.10;;;;;;6147157;28;88303;-66
2022/05/25 07:29:34;;;;;;;5.07;4.57;;;22.70;95.10;;;;;;6153945;28;88713;-65
2022/05/25 07:32:36;;;;;;;4.50;4.10;;;22.80;95.20;;;;;;6149873;28;89166;-67
2022/05/25 07:35:38;;;;;;;5.85;4.30;;;22.70;95.00;;;;;;6153908;28;90010;-65
2022/05/25 07:38:45;;;;;;;6.05;4.05;;;22.70;95.10;;;;;;6158182;28;87176;-66
2022/05/25 07:41:52;;;;;;;5.47;4.05;;;22.70;95.20;;;;;;6147252;28;89298;-66
2022/05/25 07:44:56;;;;;;;4.88;3.60;;;22.70;95.20;;;;;;6150494;28;89098;-65
2022/05/25 07:47:58;;;;;;;6.00;3.58;;;22.70;95.50;;;;;;6156663;28;87909;-66
2022/05/25 07:51:00;;;;;;;6.22;3.20;;;22.70;95.40;;;;;;6149440;28;89315;-66
2022/05/25 07:54:03;;;;;;;3.70;3.25;;;22.70;95.40;;;;;;6155454;28;89503;-66
2022/05/25 07:57:06;;;;;;;4.43;2.92;;;22.70;95.40;;;;;;6158968;28;87602;-65
2022/05/25 08:00:09;;;;;;;5.57;3.20;;;22.70;95.40;;;;;;6145794;28;89199;-67
2022/05/25 08:06:30;;;;;;;3.65;2.65;;;22.70;95.20;;;;;;6149741;28;88138;-67
2022/05/25 08:09:33;;;;;;;2.72;2.42;;;22.70;95.10;;;;;;6140300;28;89259;-66
2022/05/25 08:12:38;;;;;;;2.38;2.17;;;22.70;94.90;;;;;;6157705;28;89180;-66
2022/05/25 08:15:43;;;;;;;2.70;2.20;;;22.70;94.80;;;;;;6157959;28;89850;-67
2022/05/25 08:18:45;;;;;;;2.95;1.80;;;22.70;94.70;;;;;;6158023;28;89502;-66
2022/05/25 08:21:47;;;;;;;2.63;1.70;;;22.70;94.70;;;;;;6157951;28;87980;-67
2022/05/25 08:24:49;;;;;;;2.20;2.00;;;22.70;94.60;;;;;;6158096;28;87905;-67
2022/05/25 08:27:52;;;;;;;2.78;1.80;;;22.70;94.50;;;;;;6158781;28;88674;-66
2022/05/25 08:30:55;;;;;;;1.98;1.63;;;22.70;94.50;;;;;;6135259;28;89155;-66
2022/05/25 08:33:57;;;;;;;3.05;1.80;;;22.70;94.50;;;;;;6157193;28;87981;-66
2022/05/25 08:36:59;;;;;;;1.70;1.60;;;22.70;94.40;;;;;;6144839;28;90089;-66
2022/05/25 08:40:01;;;;;;;1.80;1.70;;;22.70;94.40;;;;;;6157613;28;89126;-67
2022/05/25 08:43:08;;;;;;;1.92;1.40;;;22.70;94.40;;;;;;6161206;28;89053;-66
2022/05/25 08:46:14;;;;;;;1.50;1.30;;;22.70;94.40;;;;;;6162449;28;89082;-67
2022/05/25 08:49:18;;;;;;;2.63;1.50;;;22.70;94.40;;;;;;6162143;28;89415;-67
2022/05/25 08:52:25;;;;;;;2.17;1.10;;;22.70;94.30;;;;;;6155413;28;89349;-67
2022/05/25 08:55:52;;;;;;;1.63;1.27;;;22.70;94.20;;;;;;6155773;28;88553;-67
2022/05/25 08:59:02;;;;;;;1.27;1.17;;;22.70;94.20;;;;;;6161829;28;88309;-67
2022/05/25 09:02:13;;;;;;;2.05;1.08;;;22.60;94.10;;;;;;6149076;28;89145;-67
2022/05/25 09:05:21;;;;;;;3.08;1.20;;;22.70;94.00;;;;;;6161763;28;89145;-67
2022/05/25 09:08:30;;;;;;;1.10;0.98;;;22.60;94.00;;;;;;6148517;28;89994;-67
2022/05/25 09:11:39;;;;;;;1.20;1.10;;;22.70;94.00;;;;;;6162146;28;89064;-67
2022/05/25 09:14:48;;;;;;;1.20;1.10;;;22.70;94.00;;;;;;6161445;28;89051;-66
2022/05/25 09:17:54;;;;;;;1.15;1.00;;;22.60;94.00;;;;;;6156554;28;89380;-66
2022/05/25 09:20:56;;;;;;;1.10;1.00;;;22.60;93.90;;;;;;6154828;28;89080;-67
2022/05/25 09:24:03;;;;;;;0.90;0.90;;;22.60;93.90;;;;;;6161583;28;89616;-66
2022/05/25 09:27:08;;;;;;;2.00;1.10;;;22.60;94.00;;;;;;6158821;28;89473;-66
2022/05/25 09:30:14;;;;;;;1.05;1.00;;;22.60;94.00;;;;;;6151675;28;88086;-66
2022/05/25 09:33:24;;;;;;;1.17;1.08;;;22.70;94.00;;;;;;6161142;28;88021;-67
2022/05/25 09:36:30;;;;;;;1.13;1.02;;;22.60;94.00;;;;;;6154112;28;89207;-66
2022/05/25 09:39:36;;;;;;;1.73;0.90;;;22.60;94.00;;;;;;6155828;28;90037;-66
2022/05/25 09:42:38;;;;;;;1.08;1.00;;;22.70;94.00;;;;;;6160747;28;89305;-67
2022/05/25 09:45:45;;;;;;;1.33;1.10;;;22.60;93.90;;;;;;6161214;28;89442;-66
2022/05/25 09:48:51;;;;;;;1.25;1.08;;;22.60;93.90;;;;;;6161085;28;89056;-67
2022/05/25 09:51:55;;;;;;;1.52;1.20;;;22.60;93.90;;;;;;6159734;28;89195;-67
2022/05/25 09:55:01;;;;;;;1.20;1.10;;;22.60;93.80;;;;;;6158411;28;88457;-65
2022/05/25 09:58:06;;;;;;;2.38;1.20;;;22.60;93.70;;;;;;6149517;28;89008;-66
2022/05/25 10:01:24;;;;;;;1.27;1.17;;;22.60;93.50;;;;;;6161334;28;88415;-66
2022/05/25 10:04:52;;;;;;;1.05;0.90;;;22.60;93.30;;;;;;6161089;28;89023;-66
2022/05/25 10:07:58;;;;;;;1.10;1.00;;;22.60;93.10;;;;;;6160307;28;89220;-65
2022/05/25 10:11:10;;;;;;;1.17;1.02;;;22.60;93.00;;;;;;6160061;28;90389;-66
2022/05/25 10:14:25;;;;;;;2.25;1.00;;;22.60;92.90;;;;;;6160373;28;89054;-66
2022/05/25 10:17:35;;;;;;;1.27;1.08;;;22.60;92.80;;;;;;6158476;28;89229;-66
2022/05/25 10:20:47;;;;;;;1.17;1.08;;;22.50;92.70;;;;;;6149858;28;89154;-67
2022/05/25 10:23:50;;;;;;;1.17;1.00;;;22.60;92.70;;;;;;6147527;28;89130;-66
2022/05/25 10:26:56;;;;;;;0.90;0.90;;;22.60;92.70;;;;;;6159690;28;89772;-66
2022/05/25 10:36:56;;;;;;;1.70;1.10;;;22.60;92.60;;;;;;6159990;28;87145;-66
2022/05/25 10:40:04;;;;;;;1.35;1.02;;;22.60;92.70;;;;;;6149599;28;89263;-66
2022/05/25 10:43:05;;;;;;;1.65;1.20;;;22.60;92.60;;;;;;6157363;28;90401;-66
2022/05/25 10:46:08;;;;;;;1.63;1.10;;;22.60;92.70;;;;;;6159744;28;88039;-67
2022/05/25 10:49:19;;;;;;;1.23;1.13;;;22.60;92.70;;;;;;6159756;28;88975;-66
2022/05/25 10:52:32;;;;;;;1.52;0.98;;;22.50;92.60;;;;;;6159944;28;89124;-66
2022/05/25 10:55:42;;;;;;;1.27;1.17;;;22.50;92.70;;;;;;6159835;28;89103;-66
2022/05/25 10:59:03;;;;;;;1.20;1.10;;;22.60;92.70;;;;;;6159351;28;89119;-66
2022/05/25 11:02:21;;;;;;;1.90;1.30;;;22.60;92.70;;;;;;6159571;28;89088;-66
2022/05/25 11:05:36;;;;;;;2.55;1.10;;;22.50;92.70;;;;;;6159771;28;88418;-66
2022/05/25 11:08:48;;;;;;;1.38;1.20;;;22.50;92.70;;;;;;6159195;28;88979;-66
2022/05/25 11:11:59;;;;;;;1.30;1.20;;;22.60;92.70;;;;;;6159168;28;89166;-66
2022/05/25 11:15:13;;;;;;;1.30;1.20;;;22.50;92.70;;;;;;6158893;28;90130;-67
2022/05/25 11:18:48;;;;;;;1.42;1.10;;;22.50;92.70;;;;;;6158742;28;89173;-66
2022/05/25 11:22:01;;;;;;;2.17;1.23;;;22.50;93.10;;;;;;6158767;28;89167;-67
2022/05/25 11:25:25;;;;;;;1.10;1.00;;;22.50;92.80;;;;;;6146624;28;89356;-67
2022/05/25 11:28:43;;;;;;;1.27;1.10;;;22.50;92.80;;;;;;6147795;28;89248;-66
2022/05/25 11:31:56;;;;;;;1.27;1.00;;;22.50;92.80;;;;;;6159185;28;89065;-67
2022/05/25 11:35:11;;;;;;;1.77;1.20;;;22.50;92.80;;;;;;6158567;28;88825;-66
2022/05/25 11:38:25;;;;;;;1.55;1.10;;;22.50;92.80;;;;;;6158791;28;88507;-66
2022/05/25 11:41:39;;;;;;;1.42;1.10;;;22.50;92.80;;;;;;6158549;28;89184;-66
2022/05/25 11:44:57;;;;;;;1.65;1.15;;;22.50;92.70;;;;;;6158768;28;89085;-66
2022/05/25 11:48:16;;;;;;;1.27;1.10;;;22.50;92.60;;;;;;6156907;28;90056;-66
2022/05/25 11:51:23;;;;;;;2.00;1.10;;;22.50;92.50;;;;;;6148926;28;89110;-63
2022/05/25 11:54:44;;;;;;;6.88;6.07;;;22.50;92.50;;;;;;6142124;28;89025;-65
2022/05/25 11:57:56;;;;;;;4.32;2.35;;;22.50;92.80;;;;;;6134782;28;89106;-67
2022/05/25 12:01:02;;;;;;;3.72;1.52;;;22.50;93.70;;;;;;6157678;28;89025;-67
2022/05/25 12:04:26;;;;;;;3.70;1.67;;;22.50;94.20;;;;;;6143954;28;88992;-66
2022/05/25 12:07:45;;;;;;;1.80;1.20;;;22.50;95.20;;;;;;6157593;28;89105;-65
2022/05/25 12:10:55;;;;;;;2.30;1.50;;;22.60;95.50;;;;;;6150243;28;88728;-66
2022/05/25 12:14:07;;;;;;;1.85;1.30;;;22.70;95.20;;;;;;6145169;28;89143;-65
2022/05/25 12:17:16;;;;;;;3.38;1.20;;;22.80;94.60;;;;;;6147162;28;89444;-65
2022/05/25 12:20:27;;;;;;;3.13;1.13;;;22.90;94.30;;;;;;6144450;28;90178;-66
2022/05/25 12:23:33;;;;;;;2.28;1.33;;;22.90;93.40;;;;;;6149600;28;90828;-66
2022/05/25 12:26:38;;;;;;;3.80;1.15;;;22.90;93.00;;;;;;6155240;28;89218;-66
2022/05/25 12:29:47;;;;;;;2.75;1.20;;;23.00;92.90;;;;;;6158857;28;88989;-66
2022/05/25 12:32:49;;;;;;;3.28;1.30;;;22.90;92.80;;;;;;6154406;28;87145;-66
2022/05/25 12:35:52;;;;;;;6.45;1.48;;;22.90;92.80;;;;;;6152818;28;89208;-66
2022/05/25 12:38:54;;;;;;;2.28;1.20;;;22.90;92.80;;;;;;6159332;28;89096;-66
2022/05/25 12:42:32;;;;;;;1.95;1.15;;;22.90;92.80;;;;;;6161116;28;88623;-65
2022/05/25 12:49:12;;;;;;;1.80;1.23;;;22.90;93.00;;;;;;6160821;28;88306;-65
2022/05/25 12:52:41;;;;;;;2.22;1.20;;;22.90;93.10;;;;;;6159113;28;90362;-66
2022/05/25 12:55:43;;;;;;;3.65;1.20;;;22.80;93.20;;;;;;6164493;28;89205;-65
2022/05/25 12:58:55;;;;;;;1.30;1.10;;;22.80;93.20;;;;;;6161090;28;89083;-64
2022/05/25 13:02:14;;;;;;;2.20;1.20;;;22.80;93.30;;;;;;6148500;28;89084;-64
2022/05/25 13:05:52;;;;;;;1.58;1.20;;;22.80;93.40;;;;;;6148221;28;89021;-65
2022/05/25 13:09:04;;;;;;;2.85;1.27;;;22.80;93.40;;;;;;6138907;28;89230;-64
2022/05/25 13:12:59;;;;;;;1.15;1.00;;;22.80;93.40;;;;;;6160754;28;89487;-65
2022/05/25 13:16:02;;;;;;;2.90;1.20;;;22.80;93.50;;;;;;6138713;28;88452;-64
2022/05/25 13:19:15;;;;;;;2.20;1.13;;;22.80;93.40;;;;;;6157251;28;89274;-66
2022/05/25 13:22:27;;;;;;;2.03;0.98;;;22.70;93.40;;;;;;6156390;28;89195;-65
2022/05/25 13:25:36;;;;;;;3.78;1.25;;;22.80;93.50;;;;;;6157147;28;89691;-64
2022/05/25 13:28:45;;;;;;;1.10;1.00;;;22.80;93.50;;;;;;6158306;28;88989;-65
2022/05/25 13:31:55;;;;;;;1.77;1.20;;;22.80;93.50;;;;;;6161221;28;89128;-65
2022/05/25 13:34:58;;;;;;;2.38;1.00;;;22.80;93.50;;;;;;6160055;28;87959;-65
2022/05/25 13:38:08;;;;;;;1.20;1.00;;;22.80;93.50;;;;;;6158148;28;88986;-64
2022/05/25 13:41:15;;;;;;;1.60;1.10;;;22.80;93.60;;;;;;6155516;28;89314;-65
2022/05/25 13:44:20;;;;;;;1.83;1.20;;;22.70;93.60;;;;;;6161317;28;89323;-64
2022/05/25 13:47:26;;;;;;;1.30;0.95;;;22.70;93.60;;;;;;6159803;28;88372;-64
2022/05/25 13:50:32;;;;;;;1.40;1.20;;;22.70;93.60;;;;;;6151557;28;89094;-65
2022/05/25 13:53:36;;;;;;;1.25;1.05;;;22.70;93.70;;;;;;6153315;28;89107;-65
2022/05/25 13:56:38;;;;;;;2.60;1.17;;;22.70;93.70;;;;;;6155021;28;90017;-64
2022/05/25 13:59:40;;;;;;;2.90;1.30;;;22.70;93.80;;;;;;6158313;28;89045;-65
2022/05/25 14:02:48;;;;;;;2.33;1.17;;;22.70;93.80;;;;;;6146272;28;89201;-66
2022/05/25 14:05:53;;;;;;;2.10;1.17;;;22.70;93.80;;;;;;6153073;28;89102;-66
2022/05/25 14:12:18;;;;;;;1.30;1.20;;;22.70;93.80;;;;;;6155679;28;88664;-65
2022/05/25 14:15:23;;;;;;;1.35;1.10;;;22.70;93.80;;;;;;6160382;28;89559;-65
2022/05/25 14:18:28;;;;;;;1.42;1.20;;;22.70;93.90;;;;;;6159968;28;87350;-65
2022/05/25 14:21:35;;;;;;;1.83;1.10;;;22.70;94.10;;;;;;6146383;28;89136;-66
2022/05/25 14:24:40;;;;;;;1.30;1.20;;;22.70;94.10;;;;;;6160296;28;89353;-66
2022/05/25 14:27:46;;;;;;;1.42;1.00;;;22.70;94.20;;;;;;6151528;28;90063;-64
2022/05/25 14:30:55;;;;;;;2.92;1.10;;;22.70;94.60;;;;;;6159587;28;88983;-65
2022/05/25 14:34:07;;;;;;;2.00;1.13;;;22.70;95.00;;;;;;6152305;28;88999;-65
2022/05/25 14:37:10;;;;;;;2.28;1.20;;;22.70;95.00;;;;;;6154326;28;89213;-66
2022/05/25 14:40:18;;;;;;;2.20;1.10;;;22.70;95.20;;;;;;6157407;28;89079;-65
2022/05/25 14:43:36;;;;;;;1.88;1.10;;;22.70;95.20;;;;;;6150368;28;89040;-65
2022/05/25 14:46:40;;;;;;;1.30;1.02;;;22.70;95.30;;;;;;6146125;28;89217;-66
2022/05/25 14:49:55;;;;;;;2.22;1.10;;;22.70;95.30;;;;;;6149172;28;87331;-66
2022/05/25 14:53:00;;;;;;;1.90;1.08;;;22.70;95.30;;;;;;6158023;28;89447;-65
2022/05/25 14:56:06;;;;;;;1.42;1.00;;;22.70;95.30;;;;;;6159397;28;88980;-65
2022/05/25 14:59:09;;;;;;;1.75;1.13;;;22.70;95.50;;;;;;6158407;28;89154;-65
2022/05/25 15:02:25;;;;;;;1.73;1.30;;;22.70;95.40;;;;;;6158666;28;88260;-65
2022/05/25 15:05:40;;;;;;;3.05;1.10;;;22.70;95.20;;;;;;6156894;28;88997;-66
2022/05/25 15:08:44;;;;;;;1.63;0.95;;;22.70;95.20;;;;;;6145254;28;89190;-65
2022/05/25 15:11:46;;;;;;;1.20;1.00;;;22.70;95.20;;;;;;6152933;28;89630;-65
2022/05/25 15:18:30;;;;;;;2.00;1.20;;;22.70;95.00;;;;;;6146467;28;87461;-65
2022/05/25 15:21:34;;;;;;;1.90;1.10;;;22.70;95.00;;;;;;6145983;28;88380;-65
2022/05/25 15:24:36;;;;;;;1.92;1.10;;;22.60;94.80;;;;;;6157647;28;89135;-65
2022/05/25 15:27:41;;;;;;;1.70;1.15;;;22.60;94.80;;;;;;6146672;28;89447;-65
2022/05/25 15:30:45;;;;;;;1.80;1.17;;;22.70;94.80;;;;;;6156637;28;90016;-65
2022/05/25 15:33:48;;;;;;;1.13;0.93;;;22.60;94.80;;;;;;6151752;28;89077;-65
2022/05/25 15:36:52;;;;;;;2.22;1.20;;;22.60;94.80;;;;;;6151111;28;89128;-64
2022/05/25 15:39:57;;;;;;;2.05;1.27;;;22.60;94.80;;;;;;6153185;28;89071;-66
2022/05/25 15:43:00;;;;;;;2.75;1.27;;;22.60;94.80;;;;;;6149765;28;89276;-66
2022/05/25 15:46:06;;;;;;;1.77;1.20;;;22.60;94.80;;;;;;6146794;28;89500;-65
2022/05/25 15:49:11;;;;;;;1.52;1.10;;;22.60;94.90;;;;;;6154466;28;88958;-65
2022/05/25 15:52:16;;;;;;;1.48;1.20;;;22.60;95.00;;;;;;6149231;28;88323;-65
2022/05/25 15:55:18;;;;;;;1.55;1.20;;;22.60;95.10;;;;;;6158042;28;89168;-65
2022/05/25 15:58:21;;;;;;;1.40;1.10;;;22.60;95.20;;;;;;6145066;28;88297;-65
2022/05/25 16:01:25;;;;;;;1.65;1.15;;;22.60;95.20;;;;;;6157769;28;90026;-67
2022/05/25 16:04:35;;;;;;;1.92;1.10;;;22.60;95.20;;;;;;6158019;28;89512;-66
2022/05/25 16:10:59;;;;;;;1.92;1.13;;;22.60;95.10;;;;;;6154088;28;87283;-66
2022/05/25 16:14:02;;;;;;;3.38;1.33;;;22.60;95.10;;;;;;6157924;28;89289;-66
2022/05/25 16:17:05;;;;;;;2.22;1.30;;;22.60;95.10;;;;;;6151634;28;89392;-66
2022/05/25 16:20:08;;;;;;;2.55;1.20;;;22.60;95.10;;;;;;6146756;28;89077;-66
2022/05/25 16:23:13;;;;;;;1.92;1.13;;;22.60;95.10;;;;;;6157297;28;88332;-65
2022/05/25 16:26:16;;;;;;;1.70;1.15;;;22.60;95.60;;;;;;6157403;28;87067;-66
2022/05/25 16:29:19;;;;;;;1.95;1.20;;;22.60;95.50;;;;;;6150652;28;89086;-66
2022/05/25 16:32:21;;;;;;;3.08;1.20;;;22.60;95.30;;;;;;6150162;28;90114;-65
2022/05/25 16:35:24;;;;;;;3.13;1.40;;;22.60;95.20;;;;;;6147481;28;89328;-66
2022/05/25 16:38:27;;;;;;;3.13;1.33;;;22.60;94.90;;;;;;6150596;28;89097;-65
2022/05/25 16:41:31;;;;;;;4.28;1.50;;;22.60;94.40;;;;;;6150546;28;89276;-65
2022/05/25 16:44:34;;;;;;;2.22;1.20;;;22.60;94.30;;;;;;6153273;28;87993;-65
2022/05/25 16:47:38;;;;;;;2.63;1.20;;;22.60;94.20;;;;;;6157711;28;88423;-65
2022/05/25 16:50:40;;;;;;;1.50;1.00;;;22.60;94.30;;;;;;6157568;28;89191;-65
2022/05/25 16:53:43;;;;;;;3.45;1.60;;;22.60;94.40;;;;;;6145314;28;88352;-65
2022/05/25 16:56:45;;;;;;;1.98;1.23;;;22.60;94.40;;;;;;6144304;28;89125;-65
2022/05/25 16:59:47;;;;;;;2.85;1.20;;;22.60;94.30;;;;;;6157350;28;89442;-65
2022/05/25 17:02:50;;;;;;;3.72;1.23;;;22.60;94.30;;;;;;6158299;28;90027;-65
2022/05/25 17:05:52;;;;;;;2.03;1.30;;;22.60;94.20;;;;;;6161781;28;89170;-65
2022/05/25 17:08:56;;;;;;;2.80;1.23;;;22.60;94.20;;;;;;6161775;28;89134;-65
2022/05/25 17:11:59;;;;;;;3.10;1.23;;;22.60;94.20;;;;;;6148756;28;89137;-65
2022/05/25 17:15:01;;;;;;;2.55;1.25;;;22.50;94.20;;;;;;6161089;28;89571;-65
2022/05/25 17:18:03;;;;;;;2.03;1.10;;;22.60;94.20;;;;;;6154839;28;89419;-65
2022/05/25 17:21:04;;;;;;;1.17;1.08;;;22.60;94.20;;;;;;6154709;28;89197;-65
2022/05/25 17:24:08;;;;;;;2.47;1.23;;;22.50;94.20;;;;;;6161262;28;88448;-65
2022/05/25 17:27:10;;;;;;;1.92;1.33;;;22.50;94.10;;;;;;6160698;28;89252;-64
2022/05/25 17:30:13;;;;;;;1.48;1.17;;;22.60;94.20;;;;;;6160385;28;89881;-65
2022/05/25 17:33:15;;;;;;;1.77;1.30;;;22.50;94.10;;;;;;6147520;28;90175;-65
2022/05/25 17:42:57;;;;;;;1.55;1.20;;;22.50;94.20;;;;;;6157756;28;88074;-65
2022/05/25 17:45:59;;;;;;;2.38;1.40;;;22.50;94.10;;;;;;6160624;28;88052;-65
2022/05/25 17:49:01;;;;;;;1.40;1.20;;;22.50;94.10;;;;;;6160112;28;89080;-66
2022/05/25 17:52:04;;;;;;;1.38;1.10;;;22.50;94.20;;;;;;6160573;28;89440;-65
2022/05/25 17:55:08;;;;;;;1.23;1.10;;;22.50;94.20;;;;;;6161223;28;87267;-65
2022/05/25 17:58:11;;;;;;;1.40;1.10;;;22.50;94.10;;;;;;6159088;28;89162;-66
2022/05/25 18:01:13;;;;;;;1.85;1.00;;;22.50;94.10;;;;;;6149275;28;89047;-65
2022/05/25 18:04:15;;;;;;;1.40;1.10;;;22.50;94.60;;;;;;6159838;28;90042;-65
2022/05/25 18:07:20;;;;;;;1.30;1.20;;;22.50;94.10;;;;;;6150230;28;88999;-65
2022/05/25 18:10:25;;;;;;;2.05;1.02;;;22.50;94.20;;;;;;6154048;28;89306;-65
2022/05/25 18:13:28;;;;;;;1.45;1.35;;;22.50;94.20;;;;;;6146636;28;88888;-65
2022/05/25 18:16:31;;;;;;;2.33;1.40;;;22.50;94.20;;;;;;6154108;28;89048;-64
2022/05/25 18:19:34;;;;;;;1.55;1.20;;;22.50;95.30;;;;;;6142089;28;89146;-64
2022/05/25 18:22:36;;;;;;;1.70;1.20;;;22.50;96.10;;;;;;6151655;28;89299;-64
2022/05/25 18:25:40;;;;;;;1.70;1.25;;;22.50;96.70;;;;;;6160416;28;88494;-65
2022/05/25 18:28:42;;;;;;;2.67;1.30;;;22.50;96.60;;;;;;6158977;28;88137;-64
2022/05/25 18:31:45;;;;;;;11.77;1.80;;;22.50;96.80;;;;;;6159275;28;89240;-64
2022/05/25 18:34:48;;;;;;;8.80;1.45;;;22.60;96.70;;;;;;6159150;28;90038;-63
2022/05/25 18:37:50;;;;;;;5.03;1.50;;;22.50;96.90;;;;;;6146713;28;89219;-64
2022/05/25 18:40:53;;;;;;;7.78;1.60;;;22.60;97.10;;;;;;6160086;28;89095;-64
2022/05/25 18:43:57;;;;;;;1.88;1.50;;;22.60;97.60;;;;;;6147817;28;88540;-64
2022/05/25 18:47:00;;;;;;;2.10;1.90;;;22.60;97.20;;;;;;6159356;28;89194;-64
2022/05/25 18:50:03;;;;;;;4.07;1.90;;;22.60;96.60;;;;;;6158906;28;89215;-65
2022/05/25 18:53:06;;;;;;;5.50;1.80;;;22.60;96.50;;;;;;6158139;28;90320;-66
2022/05/25 18:56:09;;;;;;;2.92;1.73;;;22.70;96.60;;;;;;6159592;28;88460;-64
2022/05/25 18:59:12;;;;;;;2.88;2.08;;;22.70;96.60;;;;;;6158496;28;89186;-65
2022/05/25 19:02:15;;;;;;;6.03;2.00;;;22.70;97.00;;;;;;6154492;28;88321;-65
2022/05/25 19:05:17;;;;;;;3.83;1.98;;;22.80;96.50;;;;;;6159044;28;89988;-64
2022/05/25 19:08:19;;;;;;;3.80;2.00;;;22.80;96.40;;;;;;6159068;28;89302;-64
2022/05/25 19:11:23;;;;;;;4.45;2.03;;;22.80;96.30;;;;;;6159422;28;87994;-64
2022/05/25 19:14:25;;;;;;;6.70;2.40;;;22.80;96.40;;;;;;6158378;28;90335;-64
2022/05/25 19:17:27;;;;;;;3.97;2.00;;;22.90;96.50;;;;;;6158775;28;89444;-62
2022/05/25 19:20:29;;;;;;;4.30;2.10;;;23.00;98.30;;;;;;6147330;28;89110;-65
2022/05/25 19:23:34;;;;;;;4.25;2.00;;;22.90;97.80;;;;;;6148364;28;89128;-65
2022/05/25 19:26:37;;;;;;;4.53;2.28;;;23.00;98.00;;;;;;6156827;28;87289;-65
2022/05/25 19:29:39;;;;;;;3.65;1.92;;;23.10;97.70;;;;;;6148591;28;89409;-64
2022/05/25 19:32:41;;;;;;;3.08;2.03;;;23.10;97.80;;;;;;6150494;28;89249;-66
2022/05/25 19:35:48;;;;;;;3.67;2.10;;;23.10;98.80;;;;;;6145021;28;90304;-65
2022/05/25 19:38:53;;;;;;;4.47;2.03;;;23.20;98.50;;;;;;6158236;28;89151;-64
2022/05/25 19:42:00;;;;;;;2.13;1.92;;;23.20;98.20;;;;;;6150607;28;89107;-68
2022/05/25 19:45:03;;;;;;;3.35;1.80;;;23.20;97.80;;;;;;6146083;28;89205;-65
2022/05/25 19:48:06;;;;;;;3.15;2.30;;;23.20;97.70;;;;;;6158500;28;89104;-65
2022/05/25 19:51:08;;;;;;;8.20;2.20;;;23.20;97.90;;;;;;6157973;28;87871;-66
2022/05/25 19:54:10;;;;;;;4.95;2.28;;;23.30;98.20;;;;;;6157082;28;89080;-65
2022/05/25 19:57:13;;;;;;;4.85;1.90;;;23.30;98.00;;;;;;6157628;28;88396;-64
2022/05/25 20:00:19;;;;;;;2.35;1.80;;;23.30;98.30;;;;;;6154731;28;89111;-65
2022/05/25 20:03:21;;;;;;;7.15;2.17;;;23.30;98.50;;;;;;6158798;28;89401;-66
2022/05/25 20:06:23;;;;;;;3.95;2.10;;;23.40;99.00;;;;;;6154825;28;90256;-66
2022/05/25 20:09:26;;;;;;;3.15;2.00;;;23.40;98.80;;;;;;6147495;28;89189;-65
2022/05/25 20:12:29;;;;;;;2.78;1.80;;;23.40;99.90;;;;;;6153214;28;89007;-65
2022/05/25 20:15:34;;;;;;;3.60;2.00;;;23.60;99.10;;;;;;6155285;28;89905;-65
2022/05/25 20:18:37;;;;;;;4.05;2.10;;;23.70;97.60;;;;;;6155700;28;87992;-65
2022/05/25 20:21:39;;;;;;;3.38;2.10;;;23.70;96.40;;;;;;6154955;28;88987;-66
2022/05/25 20:24:41;;;;;;;2.88;1.80;;;23.80;95.40;;;;;;6160525;28;89032;-67
2022/05/25 20:27:45;;;;;;;4.63;1.70;;;23.80;96.90;;;;;;6155949;28;88261;-66
2022/05/25 20:30:48;;;;;;;2.60;1.63;;;23.80;96.00;;;;;;6155654;28;88733;-66
2022/05/25 20:33:50;;;;;;;2.22;1.88;;;23.80;95.30;;;;;;6133852;28;89152;-66
2022/05/25 20:36:53;;;;;;;2.65;1.60;;;23.80;95.20;;;;;;6150661;28;90104;-65
2022/05/25 20:39:55;;;;;;;1.65;1.55;;;23.80;95.30;;;;;;6161229;28;89011;-66
2022/05/25 20:42:58;;;;;;;4.20;1.80;;;23.80;94.70;;;;;;6153002;28;88087;-67
2022/05/25 20:46:00;;;;;;;2.17;1.90;;;23.70;94.30;;;;;;6158260;28;89204;-65
2022/05/25 20:49:02;;;;;;;4.45;2.90;;;23.70;94.30;;;;;;6150528;28;89414;-67
2022/05/25 20:52:05;;;;;;;8.13;4.30;;;23.70;94.20;;;;;;6161011;28;89342;-65
2022/05/25 20:55:10;;;;;;;10.77;5.13;;;23.70;94.50;;;;;;6160630;28;89076;-67
2022/05/25 20:58:13;;;;;;;9.32;5.35;;;23.60;94.00;;;;;;6158356;28;88349;-67
2022/05/25 21:01:15;;;;;;;11.82;6.10;;;23.50;93.30;;;;;;6157065;28;89129;-66
2022/05/25 21:04:17;;;;;;;12.82;5.63;;;23.50;93.20;;;;;;6143223;28;89097;-66
2022/05/25 21:07:21;;;;;;;15.52;7.20;;;23.50;93.20;;;;;;6139061;28;88944;-66
2022/05/25 21:10:23;;;;;;;13.18;6.90;;;23.40;93.50;;;;;;6137482;28;88072;-66
2022/05/25 21:13:27;;;;;;;14.70;7.03;;;23.40;93.90;;;;;;6136316;28;89361;-66
